createdAt,value
2022-10-01T00:03:02.694Z,8.75
2022-10-01T00:08:06.243Z,8.82
2022-10-01T00:13:11.193Z,8.83
2022-10-01T00:18:14.651Z,8.85
2022-10-01T00:23:19.555Z,8.81
2022-10-01T00:28:23.025Z,8.77
2022-10-01T00:33:26.587Z,8.82
2022-10-01T00:38:30.102Z,8.73
2022-10-01T00:43:42.832Z,8.58
2022-10-01T00:49:01.402Z,8.57
2022-10-01T00:54:18.948Z,8.62
2022-10-01T00:59:22.677Z,8.65
2022-10-01T01:04:25.874Z,8.59
2022-10-01T01:09:36.603Z,8.42
2022-10-01T01:14:48.881Z,8.29
2022-10-01T01:20:29.158Z,8.30
2022-10-01T01:25:44.554Z,8.34
2022-10-01T01:30:52.124Z,8.35
2022-10-01T01:36:01.414Z,8.36
2022-10-01T01:41:06.876Z,8.37
2022-10-01T01:46:13.331Z,8.38
2022-10-01T01:51:38.686Z,8.39
2022-10-01T01:56:42.408Z,8.41
2022-10-01T02:01:46.479Z,8.47
2022-10-01T02:07:11.458Z,8.50
2022-10-01T02:12:32.071Z,8.48
2022-10-01T02:17:44.394Z,8.47
2022-10-01T02:23:03.371Z,8.44
2022-10-01T02:28:14.361Z,8.35
2022-10-01T02:33:27.400Z,8.24
2022-10-01T02:38:32.979Z,7.99
2022-10-01T02:43:43.275Z,7.87
2022-10-01T02:48:47.368Z,7.76
2022-10-01T02:53:57.235Z,7.73
2022-10-01T02:59:00.550Z,7.71
2022-10-01T03:04:04.058Z,7.67
2022-10-01T03:09:09.110Z,7.65
2022-10-01T03:14:12.318Z,7.60
2022-10-01T03:19:15.527Z,7.53
2022-10-01T03:24:18.942Z,7.50
2022-10-01T03:29:22.249Z,7.51
2022-10-01T03:34:27.439Z,7.52
2022-10-01T03:46:29.944Z,7.54
2022-10-01T03:51:33.962Z,7.51
2022-10-01T03:56:38.719Z,7.47
2022-10-01T04:01:42.177Z,7.49
2022-10-01T04:06:45.441Z,7.46
2022-10-01T04:11:49.058Z,7.43
2022-10-01T04:16:52.883Z,7.38
2022-10-01T04:21:56.191Z,7.30
2022-10-01T04:26:59.403Z,7.24
2022-10-01T04:32:03.928Z,7.20
2022-10-01T04:37:07.353Z,7.23
2022-10-01T04:42:10.868Z,7.20
2022-10-01T04:47:14.386Z,7.17
2022-10-01T04:52:17.695Z,7.15
2022-10-01T04:57:23.768Z,7.08
2022-10-01T05:02:27.270Z,7.02
2022-10-01T05:07:31.854Z,6.99
2022-10-01T05:12:35.342Z,6.97
2022-10-01T05:17:38.856Z,6.94
2022-10-01T05:22:42.067Z,6.98
2022-10-01T05:27:46.338Z,7.03
2022-10-01T05:32:59.754Z,7.14
2022-10-01T05:38:04.082Z,7.30
2022-10-01T05:43:07.292Z,7.48
2022-10-01T05:48:11.315Z,7.67
2022-10-01T05:53:16.069Z,7.82
2022-10-01T05:58:19.371Z,8.01
2022-10-01T06:03:23.063Z,8.18
2022-10-01T06:08:27.015Z,8.38
2022-10-01T06:13:31.147Z,8.58
2022-10-01T06:18:34.360Z,8.80
2022-10-01T06:23:37.563Z,9.00
2022-10-01T06:28:40.777Z,9.17
2022-10-01T06:33:44.091Z,9.33
2022-10-01T06:38:51.081Z,9.52
2022-10-01T06:43:54.389Z,9.70
2022-10-01T06:48:57.702Z,9.86
2022-10-01T06:54:01.115Z,10.04
2022-10-01T06:59:04.732Z,10.23
2022-10-01T07:04:07.940Z,10.44
2022-10-01T07:09:11.251Z,10.63
2022-10-01T07:14:14.475Z,10.82
2022-10-01T07:19:18.079Z,11.01
2022-10-01T07:24:21.251Z,11.19
2022-10-01T07:29:25.108Z,11.37
2022-10-01T07:34:31.387Z,11.55
2022-10-01T07:39:35.725Z,11.69
2022-10-01T07:44:39.034Z,11.82
2022-10-01T07:49:42.344Z,11.98
2022-10-01T07:54:45.659Z,12.17
2022-10-01T07:59:52.286Z,12.32
2022-10-01T08:05:16.757Z,12.44
2022-10-01T08:10:21.390Z,12.55
2022-10-01T08:15:24.600Z,12.68
2022-10-01T08:20:29.007Z,12.82
2022-10-01T08:25:33.171Z,12.94
2022-10-01T08:30:37.331Z,13.12
2022-10-01T08:35:41.728Z,13.30
2022-10-01T08:40:50.832Z,13.43
2022-10-01T08:46:00.027Z,13.59
2022-10-01T08:51:17.862Z,13.78
2022-10-01T08:56:51.406Z,13.95
2022-10-01T09:01:56.874Z,14.06
2022-10-01T09:07:22.493Z,14.20
2022-10-01T09:12:54.480Z,14.44
2022-10-01T09:18:12.645Z,14.59
2022-10-01T09:23:30.623Z,14.74
2022-10-01T09:28:35.849Z,14.89
2022-10-01T09:33:43.069Z,14.92
2022-10-01T09:39:02.133Z,14.97
2022-10-01T09:44:06.264Z,15.05
2022-10-01T09:49:18.586Z,15.12
2022-10-01T09:54:43.327Z,15.27
2022-10-01T09:59:53.574Z,15.38
2022-10-01T10:05:07.746Z,15.59
2022-10-01T10:10:27.531Z,15.70
2022-10-01T10:15:33.447Z,15.84
2022-10-01T10:20:41.074Z,15.95
2022-10-01T10:25:54.259Z,16.06
2022-10-01T10:30:58.403Z,16.10
2022-10-01T10:36:09.330Z,16.27
2022-10-01T10:41:19.905Z,16.51
2022-10-01T10:46:31.659Z,16.68
2022-10-01T10:51:54.183Z,16.85
2022-10-01T10:57:02.799Z,16.94
2022-10-01T11:02:17.084Z,17.05
2022-10-01T11:07:21.979Z,17.21
2022-10-01T11:12:33.894Z,17.39
2022-10-01T11:18:15.911Z,17.63
2022-10-01T11:23:31.101Z,17.78
2022-10-01T11:28:59.708Z,17.94
2022-10-01T11:34:21.344Z,18.09
2022-10-01T11:39:28.053Z,18.30
2022-10-01T11:44:47.013Z,18.46
2022-10-01T11:50:03.540Z,18.58
2022-10-01T11:55:56.611Z,18.85
2022-10-01T12:01:19.890Z,19.12
2022-10-01T12:06:34.089Z,19.29
2022-10-01T12:12:07.079Z,19.51
2022-10-01T12:17:19.729Z,19.62
2022-10-01T12:22:30.196Z,19.66
2022-10-01T12:28:26.291Z,19.71
2022-10-01T12:33:35.982Z,19.74
2022-10-01T12:39:24.147Z,19.74
2022-10-01T12:44:27.250Z,19.75
2022-10-01T12:49:30.762Z,19.67
2022-10-01T12:54:42.064Z,19.54
2022-10-01T13:00:10.899Z,19.55
2022-10-01T13:05:34.968Z,19.60
2022-10-01T13:10:41.043Z,19.59
2022-10-01T13:15:49.713Z,19.56
2022-10-01T13:21:02.105Z,19.65
2022-10-01T13:26:08.793Z,19.72
2022-10-01T13:31:15.347Z,19.85
2022-10-01T13:36:33.541Z,19.83
2022-10-01T13:41:39.967Z,19.86
2022-10-01T13:47:06.375Z,20.05
2022-10-01T13:52:20.211Z,20.30
2022-10-01T13:57:34.807Z,20.39
2022-10-01T14:02:42.714Z,20.36
2022-10-01T14:07:48.322Z,20.07
2022-10-01T14:13:11.472Z,19.90
2022-10-01T14:18:22.564Z,19.70
2022-10-01T14:23:49.322Z,19.30
2022-10-01T14:29:01.750Z,18.94
2022-10-01T14:34:07.720Z,18.69
2022-10-01T14:39:15.641Z,18.57
2022-10-01T14:44:28.767Z,18.39
2022-10-01T14:49:33.319Z,18.11
2022-10-01T14:55:02.023Z,17.79
2022-10-01T15:00:12.296Z,17.41
2022-10-01T15:05:34.661Z,17.01
2022-10-01T15:11:00.909Z,16.64
2022-10-01T15:16:05.164Z,16.37
2022-10-01T15:21:20.428Z,16.11
2022-10-01T15:26:27.771Z,15.85
2022-10-01T15:31:32.940Z,15.62
2022-10-01T15:36:37.512Z,15.40
2022-10-01T15:41:41.321Z,15.23
2022-10-01T15:46:44.693Z,15.03
2022-10-01T15:52:11.632Z,14.85
2022-10-01T15:57:21.285Z,14.62
2022-10-01T16:02:28.908Z,14.44
2022-10-01T16:07:35.186Z,14.25
2022-10-01T16:12:39.008Z,14.05
2022-10-01T16:18:02.801Z,13.85
2022-10-01T16:23:40.304Z,13.70
2022-10-01T16:28:43.922Z,13.59
2022-10-01T16:33:47.438Z,13.47
2022-10-01T16:38:51.772Z,13.34
2022-10-01T16:43:57.602Z,13.27
2022-10-01T16:49:01.055Z,13.20
2022-10-01T16:54:04.877Z,13.15
2022-10-01T16:59:08.188Z,13.10
2022-10-01T17:04:13.855Z,13.05
2022-10-01T17:09:17.064Z,12.99
2022-10-01T17:14:21.604Z,12.94
2022-10-01T17:19:25.222Z,12.92
2022-10-01T17:24:28.432Z,12.90
2022-10-01T17:29:32.669Z,12.88
2022-10-01T17:34:36.484Z,12.88
2022-10-01T17:39:41.435Z,12.88
2022-10-01T17:44:45.259Z,12.87
2022-10-01T17:49:48.567Z,12.87
2022-10-01T17:54:52.392Z,12.86
2022-10-01T17:59:55.802Z,12.85
2022-10-01T18:04:59.320Z,12.84
2022-10-01T18:10:02.534Z,12.82
2022-10-01T18:15:06.349Z,12.79
2022-10-01T18:20:10.073Z,12.78
2022-10-01T18:25:16.246Z,12.77
2022-10-01T18:30:20.479Z,12.76
2022-10-01T18:35:26.760Z,12.73
2022-10-01T18:40:35.593Z,12.69
2022-10-01T18:46:11.507Z,12.68
2022-10-01T18:51:23.898Z,12.66
2022-10-01T18:56:39.130Z,12.63
2022-10-01T19:01:54.808Z,12.61
2022-10-01T19:07:22.983Z,12.59
2022-10-01T19:12:48.747Z,12.59
2022-10-01T19:18:13.886Z,12.57
2022-10-01T19:23:47.571Z,12.54
2022-10-01T19:29:24.873Z,12.52
2022-10-01T19:34:33.818Z,12.49
2022-10-01T19:39:39.894Z,12.48
2022-10-01T19:44:58.459Z,12.47
2022-10-01T19:50:12.932Z,12.45
2022-10-01T19:55:20.762Z,12.45
2022-10-01T20:00:24.476Z,12.46
2022-10-01T20:05:30.343Z,12.44
2022-10-01T20:10:38.976Z,12.45
2022-10-01T20:15:55.567Z,12.44
2022-10-01T20:20:58.869Z,12.44
2022-10-01T20:26:24.236Z,12.42
2022-10-01T20:31:39.906Z,12.39
2022-10-01T20:36:44.679Z,12.34
2022-10-01T20:41:53.397Z,12.31
2022-10-01T20:47:03.885Z,12.21
2022-10-01T20:52:11.612Z,12.17
2022-10-01T20:57:32.843Z,12.17
2022-10-01T21:02:47.315Z,12.16
2022-10-01T21:08:00.064Z,12.16
2022-10-01T21:13:12.470Z,12.12
2022-10-01T21:18:28.069Z,12.10
2022-10-01T21:23:56.263Z,12.08
2022-10-01T21:29:29.372Z,12.09
2022-10-01T21:35:02.072Z,12.07
2022-10-01T21:40:24.021Z,11.96
2022-10-01T21:45:46.022Z,11.83
2022-10-01T21:50:51.109Z,11.72
2022-10-01T21:56:34.601Z,11.63
2022-10-01T22:01:56.589Z,11.64
2022-10-01T22:07:04.135Z,11.63
2022-10-01T22:12:08.000Z,11.59
2022-10-01T22:17:29.713Z,11.54
2022-10-01T22:22:38.948Z,11.50
2022-10-01T22:27:51.494Z,11.47
2022-10-01T22:33:10.250Z,11.46
2022-10-01T22:38:22.470Z,11.42
2022-10-01T22:43:25.779Z,11.38
2022-10-01T22:48:51.312Z,11.35
2022-10-01T22:54:03.632Z,11.35
2022-10-01T22:59:18.309Z,11.34
2022-10-01T23:04:33.400Z,11.32
2022-10-01T23:09:47.561Z,11.31
2022-10-01T23:14:50.780Z,11.32
2022-10-01T23:20:06.062Z,11.30
2022-10-01T23:25:18.281Z,11.27
2022-10-01T23:30:22.512Z,11.25
2022-10-01T23:35:45.798Z,11.23
2022-10-01T23:40:52.033Z,11.20
2022-10-01T23:45:57.578Z,11.19
2022-10-01T23:51:17.024Z,11.18
2022-10-01T23:56:50.879Z,11.19
